createdAt,value
2023-05-05T00:00:01.889Z,13.70
2023-05-05T00:03:24.093Z,13.80
2023-05-05T00:06:45.752Z,13.90
2023-05-05T00:10:09.444Z,14.00
2023-05-05T00:13:31.203Z,14.20
2023-05-05T00:16:52.838Z,14.20
2023-05-05T00:20:14.644Z,14.20
2023-05-05T00:23:36.293Z,14.20
2023-05-05T00:26:59.245Z,14.20
2023-05-05T00:30:21.096Z,14.10
2023-05-05T00:33:42.828Z,14.10
2023-05-05T00:37:04.392Z,14.00
2023-05-05T00:40:25.967Z,13.90
2023-05-05T00:43:48.912Z,13.90
2023-05-05T00:47:10.785Z,13.90
2023-05-05T00:50:32.445Z,13.90
2023-05-05T00:53:54.413Z,13.80
2023-05-05T00:57:16.531Z,13.70
2023-05-05T01:00:39.421Z,13.70
2023-05-05T01:04:01.101Z,13.70
2023-05-05T01:07:29.059Z,13.70
2023-05-05T01:10:53.185Z,13.70
2023-05-05T01:14:16.645Z,13.60
2023-05-05T01:17:42.401Z,13.60
2023-05-05T01:21:06.700Z,13.50
2023-05-05T01:24:40.758Z,13.40
2023-05-05T01:28:13.286Z,13.40
2023-05-05T01:31:45.222Z,13.40
2023-05-05T01:35:11.532Z,13.40
2023-05-05T01:38:36.152Z,13.50
2023-05-05T01:41:59.427Z,13.40
2023-05-05T01:45:22.111Z,13.30
2023-05-05T01:48:45.465Z,13.30
2023-05-05T01:52:08.945Z,13.30
2023-05-05T01:55:30.892Z,13.20
2023-05-05T01:58:53.294Z,13.10
2023-05-05T02:02:15.402Z,13.20
2023-05-05T02:05:39.026Z,13.30
2023-05-05T02:09:01.120Z,13.40
2023-05-05T02:12:23.010Z,13.50
2023-05-05T02:15:44.877Z,13.60
2023-05-05T02:19:06.914Z,13.60
2023-05-05T02:22:29.847Z,13.70
2023-05-05T02:25:55.061Z,13.60
2023-05-05T02:29:18.678Z,13.50
2023-05-05T02:32:41.361Z,13.60
2023-05-05T02:36:05.765Z,13.50
2023-05-05T02:39:30.882Z,13.60
2023-05-05T02:42:53.661Z,13.60
2023-05-05T02:46:15.296Z,13.50
2023-05-05T02:49:36.960Z,13.40
2023-05-05T02:52:59.060Z,13.30
2023-05-05T02:56:26.685Z,13.10
2023-05-05T02:59:50.097Z,12.90
2023-05-05T03:03:16.160Z,12.90
2023-05-05T03:06:40.642Z,12.70
2023-05-05T03:10:05.447Z,12.70
2023-05-05T03:13:29.387Z,12.60
2023-05-05T03:16:52.204Z,12.60
2023-05-05T03:20:14.419Z,12.60
2023-05-05T03:23:36.468Z,12.60
2023-05-05T03:26:58.060Z,12.60
2023-05-05T03:30:21.319Z,12.70
2023-05-05T03:33:42.940Z,12.70
2023-05-05T03:37:04.512Z,12.70
2023-05-05T03:40:36.376Z,12.70
2023-05-05T03:44:05.021Z,12.70
2023-05-05T03:47:27.956Z,12.70
2023-05-05T03:50:49.590Z,12.60
2023-05-05T03:54:11.200Z,12.60
2023-05-05T03:57:32.819Z,12.60
2023-05-05T04:00:54.410Z,12.60
2023-05-05T04:04:17.371Z,12.60
2023-05-05T04:07:39.017Z,12.70
2023-05-05T04:11:00.587Z,12.70
2023-05-05T04:14:22.141Z,12.70
2023-05-05T04:17:43.732Z,12.80
2023-05-05T04:21:06.703Z,12.90
2023-05-05T04:24:28.346Z,13.00
2023-05-05T04:27:49.941Z,13.00
2023-05-05T04:31:11.556Z,13.10
2023-05-05T04:34:33.158Z,13.20
2023-05-05T04:37:56.077Z,13.40
2023-05-05T04:41:17.651Z,13.60
2023-05-05T04:44:39.231Z,13.70
2023-05-05T04:48:00.832Z,13.90
2023-05-05T04:51:22.413Z,14.00
2023-05-05T04:54:45.581Z,14.10
2023-05-05T04:58:07.188Z,14.30
2023-05-05T05:01:28.816Z,14.40
2023-05-05T05:04:50.479Z,14.50
2023-05-05T05:08:12.081Z,14.60
2023-05-05T05:11:34.989Z,14.70
2023-05-05T05:14:56.572Z,14.80
2023-05-05T05:18:18.151Z,15.00
2023-05-05T05:21:39.727Z,15.20
2023-05-05T05:25:01.294Z,15.40
2023-05-05T05:28:24.210Z,15.50
2023-05-05T05:31:45.843Z,15.70
2023-05-05T05:35:07.675Z,15.90
2023-05-05T05:38:29.236Z,16.10
2023-05-05T05:41:50.797Z,16.30
2023-05-05T05:45:13.739Z,16.90
2023-05-05T05:48:35.299Z,17.40
2023-05-05T05:51:56.864Z,17.70
2023-05-05T05:55:18.442Z,19.40
2023-05-05T05:58:40.049Z,21.30
2023-05-05T06:02:03.063Z,21.80
2023-05-05T06:05:24.703Z,20.90
2023-05-05T06:08:46.273Z,20.10
2023-05-05T06:12:07.871Z,19.20
2023-05-05T06:15:29.477Z,18.50
2023-05-05T06:18:52.400Z,18.10
2023-05-05T06:22:13.977Z,17.90
2023-05-05T06:25:35.989Z,17.80
2023-05-05T06:28:57.596Z,17.70
2023-05-05T06:32:19.148Z,17.70
2023-05-05T06:35:42.051Z,17.80
2023-05-05T06:39:03.773Z,18.20
2023-05-05T06:42:25.441Z,18.60
2023-05-05T06:45:47.034Z,19.10
2023-05-05T06:49:08.628Z,19.30
2023-05-05T06:52:31.561Z,19.70
2023-05-05T06:55:53.221Z,20.00
2023-05-05T06:59:14.797Z,20.10
2023-05-05T07:02:36.387Z,20.40
2023-05-05T07:05:57.951Z,20.80
2023-05-05T07:09:20.944Z,21.20
2023-05-05T07:12:42.568Z,22.00
2023-05-05T07:16:04.701Z,22.60
2023-05-05T07:19:26.316Z,22.60
2023-05-05T07:22:47.937Z,22.50
2023-05-05T07:26:10.881Z,22.90
2023-05-05T07:29:32.612Z,22.80
2023-05-05T07:32:54.250Z,22.80
2023-05-05T07:36:16.476Z,22.30
2023-05-05T07:39:38.090Z,22.30
2023-05-05T07:43:01.032Z,22.00
2023-05-05T07:46:22.674Z,21.60
2023-05-05T07:49:44.261Z,21.70
2023-05-05T07:53:13.700Z,21.80
2023-05-05T07:56:36.262Z,21.90
2023-05-05T07:59:59.252Z,21.40
2023-05-05T08:03:20.945Z,20.90
2023-05-05T08:06:42.656Z,20.70
2023-05-05T08:10:04.558Z,20.30
2023-05-05T08:13:26.160Z,19.60
2023-05-05T08:16:49.122Z,19.00
2023-05-05T08:20:10.965Z,18.60
2023-05-05T08:23:32.643Z,18.20
2023-05-05T08:26:54.644Z,18.00
2023-05-05T08:30:16.810Z,18.10
2023-05-05T08:33:39.820Z,18.10
2023-05-05T08:37:01.467Z,18.20
2023-05-05T08:40:28.648Z,18.20
2023-05-05T08:43:50.223Z,18.20
2023-05-05T08:47:14.954Z,18.40
2023-05-05T08:50:38.789Z,18.60
2023-05-05T08:54:02.281Z,18.80
2023-05-05T08:57:27.888Z,18.80
2023-05-05T09:00:49.786Z,18.80
2023-05-05T09:04:11.428Z,18.80
2023-05-05T09:07:34.681Z,18.70
2023-05-05T09:10:56.383Z,18.80
2023-05-05T09:14:17.964Z,18.80
2023-05-05T09:17:39.942Z,19.10
2023-05-05T09:21:18.217Z,19.30
2023-05-05T09:24:42.575Z,19.50
2023-05-05T09:28:14.092Z,19.80
2023-05-05T09:31:36.422Z,20.10
2023-05-05T09:34:58.554Z,20.70
2023-05-05T09:38:20.518Z,21.30
2023-05-05T09:41:43.616Z,21.60
2023-05-05T09:45:23.635Z,21.90
2023-05-05T09:48:45.209Z,22.20
2023-05-05T09:52:11.886Z,22.30
2023-05-05T09:55:33.580Z,22.40
2023-05-05T09:59:07.568Z,23.30
2023-05-05T10:02:33.300Z,24.30
2023-05-05T10:05:55.736Z,25.70
2023-05-05T10:09:17.392Z,26.00
2023-05-05T10:12:39.345Z,26.10
2023-05-05T10:16:03.251Z,25.80
2023-05-05T10:19:26.161Z,25.90
2023-05-05T10:22:50.485Z,25.50
2023-05-05T10:26:13.493Z,25.40
2023-05-05T10:29:39.170Z,25.30
2023-05-05T10:33:18.258Z,25.10
2023-05-05T10:36:45.469Z,24.70
2023-05-05T10:40:08.236Z,24.10
2023-05-05T10:43:30.538Z,23.80
2023-05-05T10:46:52.182Z,23.30
2023-05-05T10:50:20.830Z,22.90
2023-05-05T10:53:44.255Z,22.60
2023-05-05T10:57:07.562Z,22.30
2023-05-05T11:00:47.079Z,22.10
2023-05-05T11:04:21.571Z,22.10
2023-05-05T11:07:44.904Z,22.10
2023-05-05T11:11:06.525Z,22.10
2023-05-05T11:14:28.105Z,21.80
2023-05-05T11:17:49.843Z,21.50
2023-05-05T11:21:12.492Z,21.40
2023-05-05T11:24:35.524Z,21.40
2023-05-05T11:28:06.542Z,21.60
2023-05-05T11:31:28.867Z,21.80
2023-05-05T11:34:50.741Z,22.00
2023-05-05T11:38:12.668Z,22.40
2023-05-05T11:41:44.893Z,22.50
2023-05-05T11:45:19.540Z,22.80
2023-05-05T11:48:44.196Z,23.10
2023-05-05T11:52:07.628Z,23.40
2023-05-05T11:55:29.232Z,23.60
2023-05-05T11:59:09.502Z,23.40
2023-05-05T12:02:31.310Z,23.20
2023-05-05T12:05:54.038Z,23.40
2023-05-05T12:09:15.978Z,23.70
2023-05-05T12:12:38.616Z,23.80
2023-05-05T12:16:09.467Z,23.80
2023-05-05T12:19:31.122Z,23.90
2023-05-05T12:22:58.868Z,23.70
2023-05-05T12:26:24.416Z,23.40
2023-05-05T12:29:46.092Z,23.10
2023-05-05T12:33:09.043Z,23.10
2023-05-05T12:36:30.885Z,23.00
2023-05-05T12:39:52.464Z,22.90
2023-05-05T12:43:23.851Z,23.00
2023-05-05T12:46:45.704Z,22.90
2023-05-05T12:50:09.575Z,22.70
2023-05-05T12:53:31.322Z,22.50
2023-05-05T12:56:52.922Z,22.40
2023-05-05T13:00:15.527Z,22.50
2023-05-05T13:03:37.226Z,22.60
2023-05-05T13:07:09.868Z,22.80
2023-05-05T13:10:31.601Z,23.10
2023-05-05T13:13:53.234Z,23.40
2023-05-05T13:17:14.950Z,23.40
2023-05-05T13:20:36.625Z,23.40
2023-05-05T13:24:12.424Z,23.40
2023-05-05T13:27:41.091Z,23.20
2023-05-05T13:31:04.499Z,23.20
2023-05-05T13:34:26.144Z,23.20
2023-05-05T13:37:47.736Z,23.10
2023-05-05T13:41:10.651Z,23.10
2023-05-05T13:44:32.454Z,23.30
2023-05-05T13:47:54.136Z,23.20
2023-05-05T13:51:15.742Z,23.20
2023-05-05T13:54:37.323Z,23.20
2023-05-05T13:58:00.261Z,23.30
2023-05-05T14:01:21.917Z,23.20
2023-05-05T14:04:43.537Z,22.90
2023-05-05T14:08:05.699Z,22.60
2023-05-05T14:11:27.280Z,22.30
2023-05-05T14:14:50.253Z,22.20
2023-05-05T14:18:11.848Z,22.20
2023-05-05T14:21:33.454Z,22.20
2023-05-05T14:24:55.225Z,22.10
2023-05-05T14:28:16.812Z,22.00
2023-05-05T14:31:40.409Z,21.80
2023-05-05T14:35:02.053Z,21.80
2023-05-05T14:38:23.679Z,21.70
2023-05-05T14:41:45.827Z,21.80
2023-05-05T14:45:08.640Z,22.00
2023-05-05T14:48:32.372Z,22.00
2023-05-05T14:51:56.118Z,22.10
2023-05-05T14:55:18.345Z,22.10
2023-05-05T14:58:39.961Z,22.00
2023-05-05T15:02:01.945Z,21.90
2023-05-05T15:05:25.033Z,21.80
2023-05-05T15:08:46.709Z,21.70
2023-05-05T15:12:08.305Z,21.50
2023-05-05T15:15:29.899Z,21.30
2023-05-05T15:18:51.518Z,21.20
2023-05-05T15:22:14.590Z,21.00
2023-05-05T15:25:36.139Z,20.90
2023-05-05T15:28:57.784Z,20.80
2023-05-05T15:32:19.342Z,20.60
2023-05-05T15:35:41.948Z,20.50
2023-05-05T15:39:05.467Z,20.40
2023-05-05T15:42:27.304Z,20.20
2023-05-05T15:45:49.020Z,20.10
2023-05-05T15:49:10.876Z,19.90
2023-05-05T15:52:32.610Z,19.80
2023-05-05T15:55:55.673Z,19.70
2023-05-05T15:59:17.264Z,19.60
2023-05-05T16:02:41.125Z,19.50
2023-05-05T16:06:02.789Z,19.40
2023-05-05T16:09:24.361Z,19.20
2023-05-05T16:12:47.365Z,19.00
2023-05-05T16:16:09.011Z,18.80
2023-05-05T16:19:30.593Z,18.60
2023-05-05T16:22:52.182Z,18.40
2023-05-05T16:26:13.744Z,18.20
2023-05-05T16:29:36.700Z,17.90
2023-05-05T16:32:58.314Z,17.70
2023-05-05T16:36:19.969Z,17.50
2023-05-05T16:39:41.600Z,17.40
2023-05-05T16:43:03.226Z,17.20
2023-05-05T16:46:26.284Z,17.20
2023-05-05T16:49:47.916Z,17.10
2023-05-05T16:53:09.591Z,16.90
2023-05-05T16:56:31.156Z,16.70
2023-05-05T16:59:54.523Z,16.60
2023-05-05T17:03:17.635Z,16.40
2023-05-05T17:06:39.214Z,16.30
2023-05-05T17:10:00.824Z,16.20
2023-05-05T17:13:22.476Z,16.10
2023-05-05T17:16:44.082Z,16.10
2023-05-05T17:20:07.953Z,16.20
2023-05-05T17:23:29.581Z,16.30
2023-05-05T17:26:51.162Z,16.30
2023-05-05T17:30:13.238Z,16.40
2023-05-05T17:33:34.843Z,16.50
2023-05-05T17:36:57.814Z,16.50
2023-05-05T17:40:19.393Z,16.40
2023-05-05T17:43:40.992Z,16.20
2023-05-05T17:47:02.629Z,16.10
2023-05-05T17:50:24.221Z,16.10
2023-05-05T17:53:47.158Z,16.00
2023-05-05T17:57:08.740Z,16.10
2023-05-05T18:00:30.418Z,16.10
2023-05-05T18:03:52.314Z,15.90
2023-05-05T18:07:14.021Z,15.90
2023-05-05T18:10:36.954Z,15.90
2023-05-05T18:13:58.532Z,15.90
2023-05-05T18:17:20.134Z,15.80
2023-05-05T18:20:41.698Z,15.80
2023-05-05T18:24:15.748Z,15.70
2023-05-05T18:27:43.077Z,15.70
2023-05-05T18:31:04.756Z,15.60
2023-05-05T18:34:26.469Z,15.50
2023-05-05T18:37:48.044Z,15.30
2023-05-05T18:41:09.641Z,15.20
2023-05-05T18:44:32.605Z,15.20
2023-05-05T18:47:54.275Z,15.00
2023-05-05T18:51:15.942Z,15.00
2023-05-05T18:54:38.019Z,15.00
2023-05-05T18:57:59.683Z,14.90
2023-05-05T19:01:22.735Z,14.90
2023-05-05T19:04:44.491Z,14.90
2023-05-05T19:08:06.269Z,14.90
2023-05-05T19:11:27.877Z,14.90
2023-05-05T19:14:49.432Z,14.90
2023-05-05T19:18:12.396Z,15.00
2023-05-05T19:21:34.018Z,14.90
2023-05-05T19:24:55.613Z,14.90
2023-05-05T19:28:17.203Z,14.90
2023-05-05T19:31:41.813Z,14.90
2023-05-05T19:35:05.859Z,14.90
2023-05-05T19:38:28.160Z,14.80
2023-05-05T19:41:49.788Z,14.80
2023-05-05T19:45:11.444Z,14.80
2023-05-05T19:48:33.037Z,14.80
2023-05-05T19:51:55.973Z,14.80
2023-05-05T19:55:17.589Z,14.70
2023-05-05T19:58:55.256Z,14.70
2023-05-05T20:02:16.920Z,14.60
2023-05-05T20:05:38.693Z,14.60
2023-05-05T20:09:01.670Z,14.60
2023-05-05T20:12:23.490Z,14.70
2023-05-05T20:15:45.261Z,14.70
2023-05-05T20:19:06.918Z,14.70
2023-05-05T20:22:28.543Z,14.80
2023-05-05T20:25:51.560Z,14.70
2023-05-05T20:29:13.208Z,14.80
2023-05-05T20:32:35.010Z,14.80
2023-05-05T20:35:56.793Z,14.90
2023-05-05T20:39:18.459Z,14.90
2023-05-05T20:42:41.420Z,14.90
2023-05-05T20:46:03.128Z,14.90
2023-05-05T20:49:24.720Z,14.90
2023-05-05T20:52:46.363Z,14.90
2023-05-05T20:56:08.917Z,14.90
2023-05-05T20:59:32.237Z,15.00
2023-05-05T21:02:54.010Z,15.00
2023-05-05T21:06:15.698Z,15.00
2023-05-05T21:09:37.393Z,15.00
2023-05-05T21:12:59.095Z,14.90
2023-05-05T21:16:22.195Z,14.90
2023-05-05T21:19:43.858Z,14.90
2023-05-05T21:23:05.478Z,14.90
2023-05-05T21:26:27.077Z,14.90
2023-05-05T21:29:50.103Z,14.90
2023-05-05T21:33:13.084Z,14.80
2023-05-05T21:36:34.687Z,14.80
2023-05-05T21:39:56.279Z,14.80
2023-05-05T21:43:17.849Z,14.80
2023-05-05T21:46:39.531Z,14.70
2023-05-05T21:50:02.546Z,14.70
2023-05-05T21:53:24.294Z,14.70
2023-05-05T21:56:45.888Z,14.70
2023-05-05T22:00:08.327Z,14.70
2023-05-05T22:03:30.130Z,14.70
2023-05-05T22:06:53.090Z,14.70
2023-05-05T22:10:14.752Z,14.70
2023-05-05T22:13:36.335Z,14.70
2023-05-05T22:16:58.333Z,14.80
2023-05-05T22:20:19.900Z,14.70
2023-05-05T22:23:42.790Z,14.70
2023-05-05T22:27:04.371Z,14.70
2023-05-05T22:30:25.914Z,14.60
2023-05-05T22:33:47.477Z,14.70
2023-05-05T22:37:09.357Z,14.70
2023-05-05T22:40:32.343Z,14.60
2023-05-05T22:43:53.917Z,14.60
2023-05-05T22:47:15.584Z,14.60
2023-05-05T22:50:37.226Z,14.60
2023-05-05T22:53:58.801Z,14.60
2023-05-05T22:57:21.793Z,14.60
2023-05-05T23:00:43.434Z,14.60
2023-05-05T23:04:05.736Z,14.60
2023-05-05T23:07:27.378Z,14.60
2023-05-05T23:10:48.944Z,14.60
2023-05-05T23:14:11.863Z,14.60
2023-05-05T23:17:33.460Z,14.60
2023-05-05T23:20:55.057Z,14.60
2023-05-05T23:24:16.636Z,14.60
2023-05-05T23:27:38.434Z,14.60
2023-05-05T23:31:01.427Z,14.60
2023-05-05T23:34:23.026Z,14.50
2023-05-05T23:37:44.603Z,14.60
2023-05-05T23:41:06.205Z,14.60
2023-05-05T23:44:27.786Z,14.50
2023-05-05T23:47:50.717Z,14.50
2023-05-05T23:51:12.334Z,14.50
2023-05-05T23:54:33.958Z,14.50
2023-05-05T23:57:55.525Z,14.50
